Terminal Aerodrome Forecast
Issued by NWS

Home | Current Version | Previous Version | Text Only | Print | Product List | Glossary On
Versions: 1 2 3 4 5 6 7 8 9 10 11 12 13 14 15 16 17 18 19 20 21 22 23 24 25 26 27
418
FTUS42 KJAX 161308 AAC
TAFVQQ
TAF AMD
KVQQ 161308Z 1613/1712 00000KT 2SM BR BKN005
     FM161400 VRB02KT 4SM BR SCT005 SCT060 BKN250
     FM161500 14006KT P6SM SCT050 SCT250
     FM162200 10005KT P6SM SCT050 SCT250
     FM170700 VRB02KT 2SM BR SCT010 BKN250=

USA.gov is the U.S. government's official web portal to all federal, state and local government web resources and services.